createdAt,value
2022-12-12T09:25:16.864Z,48.15
2022-12-12T09:26:19.086Z,48.13
2022-12-12T09:27:21.127Z,48.47
2022-12-12T09:28:25.791Z,48.33
2022-12-12T09:29:27.985Z,47.83
2022-12-12T09:30:30.307Z,48.51
2022-12-12T09:31:33.037Z,46.92
2022-12-12T09:32:37.528Z,47.79
2022-12-12T09:33:39.804Z,46.65
2022-12-12T09:34:41.881Z,46.43
2022-12-12T09:35:43.889Z,45.50
2022-12-12T09:36:47.317Z,45.44
2022-12-12T09:37:50.515Z,46.11
2022-12-12T09:38:53.434Z,46.70
2022-12-12T09:39:55.649Z,46.39
2022-12-12T09:41:03.827Z,45.38
2022-12-12T09:42:18.907Z,45.29
2022-12-12T09:44:36.339Z,45.74
2022-12-12T09:45:38.758Z,47.05
2022-12-12T09:46:48.205Z,47.30
2022-12-12T09:47:52.829Z,45.63
2022-12-12T09:48:59.381Z,46.84
2022-12-12T09:50:04.371Z,47.58
2022-12-12T09:51:06.782Z,47.04
2022-12-12T09:52:12.161Z,46.72
2022-12-12T09:53:16.529Z,47.87
2022-12-12T09:54:20.807Z,47.67
2022-12-12T09:55:32.926Z,47.18
2022-12-12T09:57:53.778Z,45.83
2022-12-12T09:59:08.836Z,45.85
2022-12-12T10:00:14.108Z,43.72
2022-12-12T10:01:45.691Z,45.30
2022-12-12T10:02:57.619Z,45.04
2022-12-12T14:04:33.875Z,54.70
2022-12-12T14:05:39.248Z,47.90
2022-12-12T14:06:42.758Z,46.35
2022-12-12T14:07:49.172Z,43.01
2022-12-12T14:08:51.476Z,43.71
2022-12-12T14:09:55.804Z,45.36
2022-12-12T14:11:00.635Z,46.67
2022-12-12T14:12:08.055Z,47.46
2022-12-12T14:13:28.117Z,46.74
2022-12-12T14:14:30.268Z,48.50
2022-12-12T14:15:34.489Z,44.49
2022-12-12T14:16:36.933Z,46.80
2022-12-12T14:17:42.669Z,41.35
2022-12-12T14:18:54.114Z,40.83
2022-12-12T14:19:57.091Z,40.33
2022-12-12T14:21:04.919Z,39.76
2022-12-12T14:22:11.068Z,42.16
2022-12-12T14:23:23.398Z,45.19
2022-12-12T14:24:36.005Z,43.06
2022-12-12T14:25:41.447Z,45.02
2022-12-12T14:26:46.396Z,44.67
2022-12-12T14:27:52.651Z,43.73
2022-12-12T14:29:19.928Z,44.41
2022-12-12T14:31:39.134Z,45.73
2022-12-12T14:33:01.948Z,44.36
2022-12-12T14:34:14.009Z,41.72
2022-12-12T14:37:09.186Z,44.72
2022-12-12T14:38:27.639Z,44.71
2022-12-12T14:39:35.815Z,43.02
2022-12-12T14:40:40.727Z,41.17
2022-12-12T14:41:43.707Z,42.89
2022-12-12T14:43:20.976Z,41.99
2022-12-12T14:44:36.497Z,40.45
2022-12-12T14:45:27.714Z,39.71
2022-12-12T14:46:31.859Z,40.80
2022-12-12T14:47:34.219Z,41.94
2022-12-12T14:48:38.494Z,41.92
2022-12-12T14:49:41.523Z,39.44
2022-12-12T14:51:05.860Z,39.74
2022-12-12T14:52:10.189Z,38.03
2022-12-12T14:53:19.547Z,40.90
2022-12-12T14:54:24.634Z,40.90
2022-12-12T14:55:31.194Z,42.81
2022-12-12T14:56:41.018Z,43.30
2022-12-12T14:57:44.420Z,43.43
2022-12-12T14:59:00.661Z,41.50
2022-12-12T15:00:06.771Z,43.03
2022-12-12T15:01:10.164Z,43.44
2022-12-12T15:02:27.595Z,44.02
2022-12-12T15:04:50.247Z,41.67
2022-12-12T15:06:14.231Z,43.92
2022-12-12T15:07:28.099Z,42.59
2022-12-12T15:08:31.358Z,39.89
2022-12-12T15:09:35.071Z,39.09
2022-12-12T15:10:38.236Z,39.09
2022-12-12T15:11:40.332Z,38.68
2022-12-12T15:12:44.012Z,40.01
2022-12-12T15:13:56.731Z,38.64
2022-12-12T15:14:59.788Z,41.42
2022-12-12T15:16:02.057Z,39.52
2022-12-12T15:17:06.189Z,36.93
2022-12-12T15:18:08.368Z,38.15
2022-12-12T15:20:29.239Z,41.65
2022-12-12T15:21:32.796Z,42.04
2022-12-12T15:22:36.551Z,42.23
2022-12-12T15:23:40.440Z,42.33
2022-12-12T15:24:43.628Z,42.43
2022-12-12T15:25:50.595Z,42.50
2022-12-12T15:26:55.690Z,42.53
2022-12-12T15:27:57.815Z,42.56
2022-12-12T15:29:00.376Z,42.68
2022-12-12T15:30:05.697Z,42.72
2022-12-12T15:31:10.559Z,42.81
2022-12-12T15:32:18.706Z,42.90
2022-12-12T15:33:24.200Z,43.09
2022-12-12T15:34:33.782Z,43.06
2022-12-12T15:35:37.608Z,43.08
2022-12-12T15:36:40.767Z,43.14
2022-12-12T15:37:43.113Z,43.24
2022-12-12T15:38:45.717Z,43.26
2022-12-12T15:40:11.286Z,43.26
2022-12-12T15:41:14.041Z,43.34
2022-12-12T15:42:16.227Z,43.37
2022-12-12T15:43:21.480Z,43.37
2022-12-12T15:44:23.659Z,43.41
2022-12-12T15:45:37.640Z,43.53
2022-12-12T15:46:39.895Z,43.54
2022-12-12T15:47:42.146Z,43.58
2022-12-12T15:48:46.807Z,43.58
2022-12-12T15:49:51.124Z,43.58
2022-12-12T15:51:02.829Z,43.56
2022-12-12T15:52:14.362Z,43.63
2022-12-12T15:53:26.685Z,43.63
2022-12-12T15:54:28.903Z,43.68
2022-12-12T15:55:31.072Z,43.67
2022-12-12T15:56:33.763Z,43.74
2022-12-12T15:57:47.927Z,43.78
2022-12-12T15:59:06.844Z,43.81
2022-12-12T16:00:13.338Z,43.91
2022-12-12T16:01:20.269Z,44.00
2022-12-12T16:02:31.382Z,44.08
2022-12-12T16:03:33.676Z,44.13
2022-12-12T16:04:36.249Z,44.19
2022-12-12T16:05:40.755Z,44.22
2022-12-12T16:06:44.764Z,44.26
2022-12-12T16:07:47.108Z,44.33
2022-12-12T16:08:56.137Z,44.35
2022-12-12T16:09:59.901Z,44.38
2022-12-12T16:11:04.916Z,44.34
2022-12-12T16:12:08.034Z,44.40
2022-12-12T16:13:25.114Z,44.46
2022-12-12T16:14:41.633Z,44.49
2022-12-12T16:15:43.796Z,44.47
2022-12-12T16:16:46.018Z,44.47
2022-12-12T16:18:10.628Z,44.52
2022-12-12T16:19:31.590Z,44.54
2022-12-12T16:20:34.737Z,44.56
2022-12-12T16:21:40.702Z,44.59
2022-12-12T16:22:45.629Z,44.65
2022-12-12T16:23:47.964Z,44.74
2022-12-12T16:26:08.092Z,44.85
2022-12-12T16:27:10.614Z,44.93
2022-12-12T16:28:25.782Z,44.94
2022-12-12T16:29:30.189Z,45.01
2022-12-12T16:30:33.620Z,45.01
2022-12-12T16:31:36.285Z,45.01
2022-12-12T16:32:38.954Z,45.02
2022-12-12T16:33:40.921Z,45.07
2022-12-12T16:34:43.237Z,45.09
2022-12-12T16:35:46.223Z,45.11
2022-12-12T16:36:48.391Z,45.12
2022-12-12T16:37:51.140Z,45.15
2022-12-12T16:38:53.296Z,45.23
2022-12-12T16:39:55.408Z,45.24
2022-12-12T16:40:59.661Z,45.25
2022-12-12T16:42:05.448Z,45.25
2022-12-12T16:43:12.947Z,45.24
2022-12-12T16:44:16.602Z,45.22
2022-12-12T16:45:19.258Z,45.22
2022-12-12T16:46:22.807Z,45.21
2022-12-12T16:47:25.495Z,45.24
2022-12-12T16:48:32.865Z,45.24
2022-12-12T16:49:35.055Z,45.27
2022-12-12T16:50:38.524Z,45.31
2022-12-12T16:51:41.601Z,45.29
2022-12-12T16:52:44.149Z,45.29
2022-12-12T16:53:46.734Z,45.25
2022-12-12T16:54:53.613Z,45.27
2022-12-12T16:55:54.430Z,45.30
2022-12-12T16:56:58.258Z,45.26
2022-12-12T16:58:00.869Z,45.26
2022-12-12T16:59:03.868Z,45.52
2022-12-12T17:00:08.514Z,45.52
2022-12-12T17:01:10.798Z,45.29
2022-12-12T17:02:21.667Z,45.32
2022-12-12T17:03:25.231Z,45.27
2022-12-12T17:04:27.588Z,45.26
2022-12-12T17:05:29.844Z,45.28
2022-12-12T17:06:32.026Z,45.29
2022-12-12T17:07:34.368Z,45.29
2022-12-12T17:08:37.571Z,45.29
2022-12-12T17:09:40.735Z,45.27
2022-12-12T17:10:45.227Z,45.28
2022-12-12T17:11:48.276Z,45.31
2022-12-12T17:12:54.323Z,45.28
2022-12-12T17:13:56.477Z,45.27
2022-12-12T17:14:58.823Z,45.27
2022-12-12T17:16:01.552Z,45.24
2022-12-12T17:17:05.338Z,45.26
2022-12-12T17:18:08.035Z,45.27
2022-12-12T17:19:12.218Z,45.26
2022-12-12T17:20:15.036Z,45.25
2022-12-12T17:21:18.235Z,45.23
2022-12-12T17:22:20.837Z,45.25
2022-12-12T17:23:30.628Z,45.08
2022-12-12T17:24:33.629Z,45.08
2022-12-12T17:25:36.917Z,45.23
2022-12-12T17:26:40.595Z,45.24
2022-12-12T17:27:42.768Z,45.25
2022-12-12T17:28:44.883Z,45.24
2022-12-12T17:29:48.926Z,45.26
2022-12-12T17:30:52.399Z,45.25
2022-12-12T17:31:55.194Z,45.24
2022-12-12T17:34:19.365Z,45.27
2022-12-12T17:35:21.573Z,45.23
2022-12-12T17:36:23.677Z,45.22
2022-12-12T17:37:27.163Z,45.16
2022-12-12T17:38:30.543Z,45.12
2022-12-12T17:39:33.120Z,45.11
2022-12-12T17:40:35.833Z,45.11
2022-12-12T17:41:38.152Z,45.15
2022-12-12T17:42:41.164Z,45.17
2022-12-12T17:43:43.879Z,45.19
2022-12-12T17:44:45.959Z,45.22
2022-12-12T17:45:57.043Z,45.20
2022-12-12T17:46:59.512Z,45.22
2022-12-12T17:48:01.599Z,45.24
2022-12-12T17:49:03.697Z,45.24
2022-12-12T17:50:07.428Z,45.28
2022-12-12T17:51:10.848Z,45.31
2022-12-12T17:52:17.519Z,45.33
2022-12-12T17:53:20.652Z,45.37
2022-12-12T17:54:22.803Z,45.38
2022-12-12T17:55:54.626Z,45.43
2022-12-12T17:56:30.083Z,45.45
2022-12-12T17:57:34.853Z,45.47
2022-12-12T17:58:39.940Z,45.51
2022-12-12T17:59:42.073Z,45.54
